createdAt,value
2019-01-22T00:00:01.260Z,233.57
2019-01-22T00:02:33.355Z,303.43
2019-01-22T00:05:04.115Z,258.83
2019-01-22T00:07:34.924Z,250.43
2019-01-22T00:10:06.645Z,233.87
2019-01-22T00:12:37.385Z,254.60
2019-01-22T00:15:09.618Z,295.77
2019-01-22T00:17:40.668Z,271.17
2019-01-22T00:20:11.969Z,255.10
2019-01-22T00:22:43.491Z,285.63
2019-01-22T00:25:14.495Z,273.87
2019-01-22T00:27:45.206Z,325.83
2019-01-22T00:30:17.232Z,296.30
2019-01-22T00:32:48.187Z,276.07
2019-01-22T00:35:18.769Z,306.60
2019-01-22T00:37:49.295Z,276.47
2019-01-22T00:40:20.166Z,289.47
2019-01-22T00:42:50.787Z,227.23
2019-01-22T00:45:21.355Z,288.30
2019-01-22T00:47:52.015Z,266.60
2019-01-22T00:50:23.145Z,279.70
2019-01-22T00:52:54.019Z,303.47
2019-01-22T00:55:24.804Z,243.03
2019-01-22T00:57:55.440Z,225.80
2019-01-22T01:00:28.965Z,236.13
2019-01-22T01:02:59.904Z,200.80
2019-01-22T01:05:31.525Z,272.23
2019-01-22T01:08:02.356Z,285.37
2019-01-22T01:10:33.259Z,272.80
2019-01-22T01:13:04.379Z,223.47
2019-01-22T01:15:35.361Z,295.73
2019-01-22T01:18:07.110Z,279.97
2019-01-22T01:20:37.678Z,247.23
2019-01-22T01:23:08.426Z,283.13
2019-01-22T01:25:39.004Z,249.80
2019-01-22T01:28:09.576Z,255.53
2019-01-22T01:30:40.509Z,248.77
2019-01-22T01:33:11.031Z,294.23
2019-01-22T01:35:41.777Z,285.57
2019-01-22T01:38:13.478Z,266.03
2019-01-22T01:40:44.226Z,275.00
2019-01-22T01:43:14.889Z,245.93
2019-01-22T01:45:45.494Z,265.13
2019-01-22T01:48:15.962Z,275.50
2019-01-22T01:50:46.594Z,303.73
2019-01-22T01:53:23.660Z,252.17
2019-01-22T01:55:49.437Z,304.80
2019-01-22T01:58:19.976Z,329.97
2019-01-22T02:00:50.484Z,285.33
2019-01-22T02:03:21.092Z,292.17
2019-01-22T02:05:51.785Z,279.90
2019-01-22T02:08:22.423Z,231.97
2019-01-22T02:10:53.018Z,244.77
2019-01-22T02:13:36.751Z,218.57
2019-01-22T02:17:06.573Z,258.43
2019-01-22T02:20:06.203Z,275.17
2019-01-22T02:23:30.604Z,250.27
2019-01-22T02:26:20.269Z,266.67
2019-01-22T02:29:17.867Z,258.40
2019-01-22T02:32:38.581Z,267.13
2019-01-22T02:35:35.113Z,168.60
2019-01-22T02:38:45.154Z,252.57
2019-01-22T02:41:29.338Z,220.50
2019-01-22T02:44:34.940Z,214.33
2019-01-22T02:47:23.045Z,230.03
2019-01-22T02:50:46.531Z,192.77
2019-01-22T02:53:41.190Z,262.53
2019-01-22T02:56:52.940Z,239.43
2019-01-22T02:59:59.844Z,192.47
2019-01-22T03:02:59.576Z,226.00
2019-01-22T03:06:17.531Z,258.40
2019-01-22T03:09:18.516Z,245.47
2019-01-22T03:12:39.058Z,250.67
2019-01-22T03:15:56.726Z,205.00
2019-01-22T03:18:52.310Z,256.83
2019-01-22T03:22:14.509Z,252.87
2019-01-22T03:25:22.107Z,167.23
2019-01-22T03:28:26.321Z,209.03
2019-01-22T03:31:28.980Z,245.67
2019-01-22T03:34:50.077Z,243.80
2019-01-22T03:37:38.353Z,260.47
2019-01-22T03:40:24.637Z,231.67
2019-01-22T03:43:13.094Z,265.67
2019-01-22T03:45:53.495Z,226.53
2019-01-22T03:49:03.157Z,250.30
2019-01-22T03:51:57.408Z,238.53
2019-01-22T03:55:05.789Z,253.33
2019-01-22T03:58:03.286Z,260.27
2019-01-22T04:00:46.091Z,224.97
2019-01-22T04:03:19.555Z,247.97
2019-01-22T04:05:52.583Z,253.10
2019-01-22T04:08:23.332Z,234.43
2019-01-22T04:11:07.520Z,263.63
2019-01-22T04:13:38.460Z,279.53
2019-01-22T04:16:09.104Z,257.50
2019-01-22T04:18:39.969Z,211.43
2019-01-22T04:21:13.981Z,239.03
2019-01-22T04:24:18.213Z,304.17
2019-01-22T04:27:27.208Z,245.30
2019-01-22T04:30:52.968Z,256.83
2019-01-22T04:34:06.658Z,246.10
2019-01-22T04:37:06.519Z,228.57
2019-01-22T04:40:01.598Z,235.90
2019-01-22T04:42:43.490Z,268.00
2019-01-22T04:45:42.846Z,219.57
2019-01-22T04:48:59.555Z,226.70
2019-01-22T04:51:58.816Z,252.53
2019-01-22T04:54:37.589Z,294.43
2019-01-22T04:57:19.861Z,291.00
2019-01-22T05:00:46.750Z,169.83
2019-01-22T05:03:41.028Z,292.93
2019-01-22T05:06:44.997Z,238.20
2019-01-22T05:10:01.114Z,271.30
2019-01-22T05:13:03.908Z,227.70
2019-01-22T05:15:59.196Z,247.33
2019-01-22T05:19:04.135Z,245.63
2019-01-22T05:22:20.794Z,239.33
2019-01-22T05:25:09.659Z,258.63
2019-01-22T05:28:19.345Z,274.87
2019-01-22T05:31:26.839Z,249.47
2019-01-22T05:34:23.405Z,241.57
2019-01-22T05:37:10.472Z,274.80
2019-01-22T05:40:02.314Z,261.17
2019-01-22T05:43:06.162Z,249.50
2019-01-22T05:46:16.514Z,235.17
2019-01-22T05:49:33.154Z,268.27
2019-01-22T05:52:18.912Z,239.97
2019-01-22T05:55:22.938Z,277.97
2019-01-22T05:58:48.771Z,243.53
2019-01-22T06:01:31.419Z,241.60
2019-01-22T06:04:47.946Z,202.10
2019-01-22T06:07:45.511Z,245.57
2019-01-22T06:10:59.096Z,218.50
2019-01-22T06:14:01.481Z,255.30
2019-01-22T06:17:21.224Z,258.27
2019-01-22T06:20:32.425Z,224.93
2019-01-22T06:23:49.254Z,264.60
2019-01-22T06:26:45.597Z,257.60
2019-01-22T06:29:56.446Z,215.83
2019-01-22T06:33:03.937Z,200.83
2019-01-22T06:36:03.236Z,209.03
2019-01-22T06:39:02.242Z,224.77
2019-01-22T06:42:09.777Z,250.07
2019-01-22T06:45:10.249Z,229.37
2019-01-22T06:48:18.503Z,276.67
2019-01-22T06:51:45.163Z,203.70
2019-01-22T06:55:02.518Z,244.67
2019-01-22T06:58:12.087Z,228.87
2019-01-22T07:01:28.216Z,233.47
2019-01-22T07:04:41.282Z,216.00
2019-01-22T07:07:48.199Z,243.37
2019-01-22T07:10:59.999Z,265.30
2019-01-22T07:14:18.867Z,235.43
2019-01-22T07:17:29.242Z,228.13
2019-01-22T07:20:33.840Z,219.87
2019-01-22T07:23:44.454Z,252.63
2019-01-22T07:26:29.311Z,212.83
2019-01-22T07:29:51.950Z,189.97
2019-01-22T07:33:16.073Z,243.50
2019-01-22T07:36:36.420Z,225.13
2019-01-22T07:39:26.059Z,214.13
2019-01-22T07:42:31.720Z,209.30
2019-01-22T07:45:58.752Z,245.03
2019-01-22T07:48:36.373Z,216.47
2019-01-22T07:51:49.239Z,184.37
2019-01-22T07:55:03.393Z,177.30
2019-01-22T07:58:09.514Z,200.67
2019-01-22T08:01:15.651Z,205.40
2019-01-22T08:04:32.212Z,172.47
2019-01-22T08:07:45.921Z,177.33
2019-01-22T08:10:48.439Z,227.63
2019-01-22T08:13:34.619Z,249.57
2019-01-22T08:16:51.980Z,217.07
2019-01-22T08:20:08.967Z,188.03
2019-01-22T08:23:36.160Z,203.53
2019-01-22T08:26:38.915Z,214.67
2019-01-22T08:29:44.231Z,217.07
2019-01-22T08:33:10.998Z,212.90
2019-01-22T08:36:07.688Z,195.47
2019-01-22T08:39:10.858Z,166.03
2019-01-22T08:42:14.300Z,156.17
2019-01-22T08:45:22.844Z,207.70
2019-01-22T08:48:31.928Z,179.10
2019-01-22T08:51:29.306Z,223.87
2019-01-22T08:54:39.805Z,173.10
2019-01-22T08:57:27.486Z,207.70
2019-01-22T09:00:28.309Z,209.37
2019-01-22T09:03:33.961Z,194.00
2019-01-22T09:06:28.363Z,206.47
2019-01-22T09:09:36.518Z,212.73
2019-01-22T09:12:25.231Z,196.63
2019-01-22T09:15:35.342Z,205.20
2019-01-22T09:18:38.795Z,224.53
2019-01-22T09:21:58.083Z,180.57
2019-01-22T09:25:05.289Z,187.03
2019-01-22T09:28:07.905Z,192.93
2019-01-22T09:31:12.333Z,203.73
2019-01-22T09:34:27.052Z,192.27
2019-01-22T09:37:15.043Z,218.27
2019-01-22T09:39:45.689Z,195.93
2019-01-22T09:42:16.506Z,228.53
2019-01-22T09:44:47.397Z,179.43
2019-01-22T09:47:17.964Z,193.97
2019-01-22T09:49:48.845Z,179.53
2019-01-22T09:52:19.582Z,191.00
2019-01-22T09:54:50.598Z,202.90
2019-01-22T09:57:21.243Z,200.53
2019-01-22T09:59:51.862Z,190.37
2019-01-22T10:02:22.483Z,181.27
2019-01-22T10:04:53.233Z,193.23
2019-01-22T10:07:23.857Z,181.13
2019-01-22T10:09:54.524Z,161.00
2019-01-22T10:12:25.291Z,180.73
2019-01-22T10:14:56.152Z,199.97
2019-01-22T10:17:27.342Z,189.47
2019-01-22T10:19:58.286Z,193.23
2019-01-22T10:22:29.197Z,177.73
2019-01-22T10:25:00.234Z,201.10
2019-01-22T10:27:30.892Z,189.87
2019-01-22T10:30:01.941Z,212.57
2019-01-22T10:32:32.725Z,186.43
2019-01-22T10:35:03.295Z,197.20
2019-01-22T10:37:33.847Z,188.07
2019-01-22T10:40:05.577Z,187.83
2019-01-22T10:42:36.462Z,174.20
2019-01-22T10:45:09.583Z,193.83
2019-01-22T10:47:40.543Z,193.37
2019-01-22T10:50:11.961Z,197.80
2019-01-22T10:52:44.438Z,188.10
2019-01-22T10:55:17.130Z,179.73
2019-01-22T10:57:48.122Z,220.47
2019-01-22T11:00:37.283Z,194.47
2019-01-22T11:03:08.922Z,191.77
2019-01-22T11:05:42.241Z,192.27
2019-01-22T11:08:13.043Z,216.30
2019-01-22T11:10:44.070Z,189.17
2019-01-22T11:13:15.224Z,173.70
2019-01-22T11:15:46.041Z,175.40
2019-01-22T11:18:16.860Z,187.33
2019-01-22T11:20:47.953Z,188.00
2019-01-22T11:23:18.882Z,183.63
2019-01-22T11:25:49.846Z,197.53
2019-01-22T11:28:20.764Z,195.17
2019-01-22T11:30:52.182Z,169.97
2019-01-22T11:33:23.038Z,182.47
2019-01-22T11:35:54.072Z,183.40
2019-01-22T11:38:24.940Z,197.90
2019-01-22T11:40:55.539Z,194.80
2019-01-22T11:43:26.394Z,190.87
2019-01-22T11:45:58.180Z,192.73
2019-01-22T11:48:28.810Z,189.93
2019-01-22T11:50:59.436Z,167.10
2019-01-22T11:53:30.269Z,202.70
2019-01-22T11:56:01.266Z,202.73
2019-01-22T11:58:32.318Z,194.43
2019-01-22T12:01:06.162Z,203.00
2019-01-22T12:03:37.006Z,172.93
2019-01-22T12:06:07.910Z,189.27
2019-01-22T12:08:39.574Z,170.17
2019-01-22T12:11:12.267Z,181.10
2019-01-22T12:13:43.375Z,192.00
2019-01-22T12:16:14.147Z,196.07
2019-01-22T12:18:45.257Z,205.40
2019-01-22T12:21:15.976Z,197.27
2019-01-22T12:23:46.889Z,206.53
2019-01-22T12:26:17.500Z,201.67
2019-01-22T12:28:49.415Z,199.90
2019-01-22T12:31:20.632Z,190.50
2019-01-22T12:33:51.199Z,178.40
2019-01-22T12:36:23.616Z,209.17
2019-01-22T12:38:54.423Z,183.43
2019-01-22T12:41:24.992Z,189.77
2019-01-22T12:43:55.724Z,194.60
2019-01-22T12:46:26.596Z,200.83
2019-01-22T12:48:57.271Z,209.87
2019-01-22T12:51:28.049Z,206.33
2019-01-22T12:53:58.728Z,223.87
2019-01-22T12:56:29.764Z,215.97
2019-01-22T12:59:02.087Z,191.00
2019-01-22T13:01:32.962Z,218.70
2019-01-22T13:04:03.702Z,203.80
2019-01-22T13:06:34.445Z,241.53
2019-01-22T13:09:07.587Z,233.33
2019-01-22T13:11:38.437Z,219.10
2019-01-22T13:14:09.169Z,230.90
2019-01-22T13:16:40.027Z,238.33
2019-01-22T13:19:10.631Z,253.57
2019-01-22T13:21:41.699Z,249.77
2019-01-22T13:24:12.416Z,253.33
2019-01-22T13:26:43.224Z,223.00
2019-01-22T13:29:13.754Z,234.47
2019-01-22T13:31:44.586Z,219.03
2019-01-22T13:34:15.953Z,219.20
2019-01-22T13:36:46.781Z,227.00
2019-01-22T13:39:17.484Z,223.13
2019-01-22T13:41:48.205Z,256.17
2019-01-22T13:44:18.833Z,230.97
2019-01-22T13:46:49.923Z,224.30
2019-01-22T13:49:20.894Z,240.87
2019-01-22T13:51:51.570Z,231.83
2019-01-22T13:54:22.323Z,235.73
2019-01-22T13:56:53.115Z,251.40
2019-01-22T13:59:23.819Z,226.07
2019-01-22T14:01:54.401Z,238.93
2019-01-22T14:04:24.963Z,230.97
2019-01-22T14:06:55.602Z,239.50
2019-01-22T14:09:26.545Z,224.47
2019-01-22T14:11:57.070Z,240.07
2019-01-22T14:14:27.643Z,245.77
2019-01-22T14:16:58.446Z,222.20
2019-01-22T14:19:29.062Z,235.90
2019-01-22T14:21:59.945Z,214.70
2019-01-22T14:24:30.997Z,211.40
2019-01-22T14:27:01.802Z,217.67
2019-01-22T14:29:32.690Z,229.67
2019-01-22T14:32:03.441Z,215.77
2019-01-22T14:34:34.276Z,212.47
2019-01-22T14:37:04.914Z,204.63
2019-01-22T14:39:35.659Z,229.93
2019-01-22T14:42:06.603Z,216.00
2019-01-22T14:44:37.194Z,218.70
2019-01-22T14:47:07.934Z,225.77
2019-01-22T14:49:38.892Z,214.80
2019-01-22T14:52:09.384Z,236.27
2019-01-22T14:54:40.197Z,203.47
2019-01-22T14:57:10.794Z,220.20
2019-01-22T14:59:43.166Z,219.43
2019-01-22T15:02:13.788Z,188.80
2019-01-22T15:04:44.410Z,176.13
2019-01-22T15:07:15.144Z,188.63
2019-01-22T15:09:45.951Z,213.20
2019-01-22T15:12:16.716Z,206.13
2019-01-22T15:14:47.325Z,215.17
2019-01-22T15:17:17.910Z,207.67
2019-01-22T15:19:48.772Z,209.97
2019-01-22T15:22:19.919Z,230.40
2019-01-22T15:24:50.511Z,205.13
2019-01-22T15:27:21.485Z,230.90
2019-01-22T15:29:53.857Z,216.40
2019-01-22T15:32:24.313Z,199.37
2019-01-22T15:34:54.964Z,200.93
2019-01-22T15:37:25.556Z,223.67
2019-01-22T15:39:56.544Z,209.63
2019-01-22T15:42:27.246Z,223.33
2019-01-22T15:44:57.917Z,210.23
2019-01-22T15:47:28.699Z,202.37
2019-01-22T15:49:59.514Z,217.03
2019-01-22T15:52:30.253Z,189.33
2019-01-22T15:55:01.446Z,199.13
2019-01-22T15:57:32.191Z,194.90
2019-01-22T16:00:03.600Z,178.27
2019-01-22T16:02:34.333Z,193.57
2019-01-22T16:05:06.026Z,189.93
2019-01-22T16:07:36.780Z,200.77
2019-01-22T16:10:08.870Z,186.13
2019-01-22T16:12:39.552Z,198.53
2019-01-22T16:15:13.170Z,170.47
2019-01-22T16:17:44.030Z,175.00
2019-01-22T16:20:22.603Z,175.63
2019-01-22T16:22:53.704Z,184.03
2019-01-22T16:25:24.677Z,170.27
2019-01-22T16:27:55.413Z,165.57
2019-01-22T16:30:27.274Z,159.63
2019-01-22T16:32:58.296Z,181.13
2019-01-22T16:35:29.766Z,168.13
2019-01-22T16:38:00.374Z,176.93
2019-01-22T16:40:31.207Z,180.60
2019-01-22T16:43:01.943Z,176.93
2019-01-22T16:45:35.253Z,179.00
2019-01-22T16:48:08.183Z,162.33
2019-01-22T16:50:43.492Z,171.00
2019-01-22T16:53:19.121Z,168.03
2019-01-22T16:55:50.010Z,188.80
2019-01-22T16:58:20.771Z,167.00
2019-01-22T17:00:51.762Z,174.00
2019-01-22T17:03:22.595Z,173.53
2019-01-22T17:05:53.601Z,160.20
2019-01-22T17:08:24.303Z,175.93
2019-01-22T17:10:56.361Z,175.13
2019-01-22T17:13:27.120Z,190.80
2019-01-22T17:15:58.024Z,194.57
2019-01-22T17:18:29.101Z,174.30
2019-01-22T17:20:59.863Z,183.77
2019-01-22T17:23:30.685Z,197.83
2019-01-22T17:26:01.612Z,186.57
2019-01-22T17:28:32.361Z,182.63
2019-01-22T17:31:08.559Z,214.23
2019-01-22T17:33:43.533Z,186.13
2019-01-22T17:36:14.340Z,175.13
2019-01-22T17:38:45.711Z,167.67
2019-01-22T17:41:16.434Z,182.07
2019-01-22T17:43:47.264Z,176.70
2019-01-22T17:46:18.823Z,190.07
2019-01-22T17:48:49.388Z,188.77
2019-01-22T17:51:21.179Z,190.00
2019-01-22T17:53:52.298Z,185.17
2019-01-22T17:56:23.029Z,187.80
2019-01-22T17:58:53.908Z,164.20
2019-01-22T18:01:24.826Z,206.57
2019-01-22T18:03:55.516Z,180.23
2019-01-22T18:06:26.507Z,198.10
2019-01-22T18:08:57.006Z,184.07
2019-01-22T18:11:28.357Z,178.00
2019-01-22T18:13:59.102Z,181.77
2019-01-22T18:16:29.858Z,233.87
2019-01-22T18:19:00.791Z,202.00
2019-01-22T18:21:31.467Z,155.23
2019-01-22T18:24:02.466Z,201.57
2019-01-22T18:26:33.429Z,183.87
2019-01-22T18:29:04.354Z,190.47
2019-01-22T18:31:35.313Z,174.87
2019-01-22T18:34:07.377Z,188.10
2019-01-22T18:36:37.983Z,161.00
2019-01-22T18:39:09.380Z,194.07
2019-01-22T18:41:40.046Z,188.13
2019-01-22T18:44:10.611Z,194.90
2019-01-22T18:46:41.198Z,188.27
2019-01-22T18:49:11.678Z,185.87
2019-01-22T18:51:42.216Z,207.27
2019-01-22T18:54:13.335Z,212.03
2019-01-22T18:56:44.054Z,182.90
2019-01-22T18:59:14.628Z,208.87
2019-01-22T19:01:45.502Z,199.43
2019-01-22T19:04:16.192Z,194.40
2019-01-22T19:06:47.954Z,220.73
2019-01-22T19:09:18.552Z,200.60
2019-01-22T19:11:49.447Z,206.57
2019-01-22T19:14:20.412Z,189.80
2019-01-22T19:16:51.146Z,198.83
2019-01-22T19:19:22.466Z,172.40
2019-01-22T19:21:53.116Z,186.03
2019-01-22T19:24:23.719Z,176.37
2019-01-22T19:26:54.435Z,233.53
2019-01-22T19:29:25.422Z,194.17
2019-01-22T19:31:57.807Z,170.90
2019-01-22T19:34:28.598Z,193.83
2019-01-22T19:36:59.265Z,192.13
2019-01-22T19:39:30.080Z,194.80
2019-01-22T19:42:00.689Z,176.87
2019-01-22T19:44:31.660Z,206.07
2019-01-22T19:47:02.503Z,187.80
2019-01-22T19:49:33.678Z,187.37
2019-01-22T19:52:04.531Z,191.50
2019-01-22T19:54:35.686Z,181.93
2019-01-22T19:57:06.427Z,183.07
2019-01-22T19:59:37.034Z,180.03
2019-01-22T20:02:08.056Z,195.67
2019-01-22T20:04:38.689Z,174.33
2019-01-22T20:07:09.724Z,193.93
2019-01-22T20:09:40.655Z,170.83
2019-01-22T20:12:12.372Z,183.07
2019-01-22T20:14:43.176Z,202.30
2019-01-22T20:17:14.146Z,174.73
2019-01-22T20:19:45.745Z,194.70
2019-01-22T20:22:16.317Z,168.07
2019-01-22T20:24:47.933Z,172.20
2019-01-22T20:27:18.800Z,168.47
2019-01-22T20:29:52.663Z,175.77
2019-01-22T20:32:23.301Z,169.27
2019-01-22T20:34:54.154Z,173.97
2019-01-22T20:37:24.785Z,173.37
2019-01-22T20:39:55.334Z,173.50
2019-01-22T20:42:26.057Z,154.13
2019-01-22T20:44:56.873Z,185.50
2019-01-22T20:47:27.697Z,145.90
2019-01-22T20:49:58.345Z,159.10
2019-01-22T20:52:29.258Z,156.73
2019-01-22T20:55:00.196Z,152.73
2019-01-22T20:57:30.883Z,157.57
2019-01-22T21:00:02.086Z,161.80
2019-01-22T21:02:32.909Z,153.03
2019-01-22T21:05:03.780Z,150.97
2019-01-22T21:07:34.389Z,142.90
2019-01-22T21:10:06.855Z,137.17
2019-01-22T21:12:37.974Z,145.53
2019-01-22T21:15:09.744Z,140.17
2019-01-22T21:17:40.666Z,148.53
2019-01-22T21:20:11.813Z,141.53
2019-01-22T21:22:42.762Z,123.03
2019-01-22T21:25:14.829Z,133.37
2019-01-22T21:27:46.865Z,156.43
2019-01-22T21:30:32.109Z,152.30
2019-01-22T21:33:03.667Z,154.33
2019-01-22T21:35:34.429Z,162.83
2019-01-22T21:38:05.942Z,165.90
2019-01-22T21:40:36.889Z,133.47
2019-01-22T21:43:07.917Z,157.23
2019-01-22T21:45:38.691Z,138.10
2019-01-22T21:48:09.426Z,147.50
2019-01-22T21:50:40.202Z,172.77
2019-01-22T21:53:10.955Z,173.23
2019-01-22T21:55:41.785Z,167.93
2019-01-22T21:58:12.395Z,168.53
2019-01-22T22:00:43.009Z,179.97
2019-01-22T22:03:13.562Z,172.23
2019-01-22T22:05:44.390Z,159.17
2019-01-22T22:08:14.869Z,187.03
2019-01-22T22:10:45.814Z,179.40
2019-01-22T22:13:16.569Z,153.07
2019-01-22T22:15:47.732Z,158.27
2019-01-22T22:18:19.242Z,145.27
2019-01-22T22:20:50.448Z,155.87
2019-01-22T22:23:21.301Z,136.47
2019-01-22T22:25:51.876Z,153.57
2019-01-22T22:28:22.707Z,137.33
2019-01-22T22:30:53.487Z,145.83
2019-01-22T22:33:24.054Z,134.20
2019-01-22T22:35:54.914Z,156.17
2019-01-22T22:38:25.471Z,126.07
2019-01-22T22:40:56.165Z,145.30
2019-01-22T22:43:26.710Z,142.20
2019-01-22T22:45:57.464Z,133.23
2019-01-22T22:48:28.121Z,164.20
2019-01-22T22:50:59.392Z,140.93
2019-01-22T22:53:29.943Z,132.80
2019-01-22T22:56:00.506Z,142.47
2019-01-22T22:58:31.180Z,156.37
2019-01-22T23:01:28.759Z,138.80
2019-01-22T23:03:59.481Z,144.67
2019-01-22T23:06:30.200Z,134.53
2019-01-22T23:09:00.762Z,145.97
2019-01-22T23:11:33.112Z,130.50
2019-01-22T23:14:03.587Z,145.00
2019-01-22T23:16:34.187Z,142.00
2019-01-22T23:19:04.911Z,134.97
2019-01-22T23:21:35.625Z,136.33
2019-01-22T23:24:06.138Z,116.60
2019-01-22T23:26:36.799Z,140.93
2019-01-22T23:29:07.427Z,126.30
2019-01-22T23:31:38.574Z,113.90
2019-01-22T23:34:09.306Z,140.47
2019-01-22T23:36:40.275Z,138.77
2019-01-22T23:39:11.094Z,131.07
2019-01-22T23:41:41.931Z,125.07
2019-01-22T23:44:12.620Z,129.70
2019-01-22T23:46:43.578Z,145.37
2019-01-22T23:49:14.806Z,132.07
2019-01-22T23:51:45.715Z,135.37
2019-01-22T23:54:16.226Z,119.77
2019-01-22T23:56:46.906Z,116.27
2019-01-22T23:59:17.799Z,103.07
